Jason Belcher — WDC2455 — position and weather

sailwx.info

Track history (hours):
 
Tides and Currents Weather Stations Pressure Air Temp Water Temp Dewpoint Dewpoint Depression Visibility Wind Speed Wind Dir Waves Ship Positions

Jason Belcher

Owner: Florida Marine, LLC, Mandeville, LA. More information available from US FCC via Universal Licensing System and Coast Guard Vessel Documentation Center.

Last reported at 2017-Nov-19 08:35 UTC. Time now 2017-Nov-20 02:10 UTC.
Position N 32°00' W 091°05'.

Length 38 m; draft 3 m.

Type: Towing. MMSI: 366993430.

Date/timePositionNaut miles runAvg speedWind from/ knotsBaromVisibWave heightAir tempDewpointWater temp
2017-Nov-19 08:35N 32°00' W 091°05'1 8.7
2017-Nov-19 08:26N 32°01' W 091°04'5 7.5
2017-Nov-19 07:44N 32°06' W 091°06'2 6.6
2017-Nov-19 07:30N 32°08' W 091°06'4 8.1
2017-Nov-19 07:00N 32°07' W 091°02'4 8.2
2017-Nov-19 06:31N 32°11' W 090°60'4 8.6
2017-Nov-19 06:00N 32°15' W 090°59'4 8.3
2017-Nov-19 05:30N 32°18' W 090°55'3 5.4
2017-Nov-19 05:01N 32°21' W 090°56'4 7.4
2017-Nov-19 04:31N 32°21' W 090°60'4 7.8
2017-Nov-19 04:01N 32°25' W 091°00'4 8.3
2017-Nov-19 03:31N 32°27' W 091°05'7 7.8
2017-Nov-19 02:40N 32°33' W 091°06'1 8.2
2017-Nov-19 02:30N 32°34' W 091°07'  
Track history (hours):
 
Tides and Currents Weather Stations Pressure Air Temp Water Temp Dewpoint Dewpoint Depression Visibility Wind Speed Wind Dir Waves Ship Positions

Jason Belcher

Owner: Florida Marine, LLC, Mandeville, LA. More information available from US FCC via Universal Licensing System and Coast Guard Vessel Documentation Center.

Last reported at 2017-Nov-19 08:35 UTC. Time now 2017-Nov-20 02:10 UTC.
Position N 32°00' W 091°05'.

Length 38 m; draft 3 m.

Type: Towing. MMSI: 366993430.

Date/timePositionNaut miles runAvg speedWind from/ knotsBaromVisibWave heightAir tempDewpointWater temp
2017-Nov-19 08:35N 32°00' W 091°05'1 8.7
2017-Nov-19 08:26N 32°01' W 091°04'5 7.5
2017-Nov-19 07:44N 32°06' W 091°06'2 6.6
2017-Nov-19 07:30N 32°08' W 091°06'4 8.1
2017-Nov-19 07:00N 32°07' W 091°02'4 8.2
2017-Nov-19 06:31N 32°11' W 090°60'4 8.6
2017-Nov-19 06:00N 32°15' W 090°59'4 8.3
2017-Nov-19 05:30N 32°18' W 090°55'3 5.4
2017-Nov-19 05:01N 32°21' W 090°56'4 7.4
2017-Nov-19 04:31N 32°21' W 090°60'4 7.8
2017-Nov-19 04:01N 32°25' W 091°00'4 8.3
2017-Nov-19 03:31N 32°27' W 091°05'7 7.8
2017-Nov-19 02:40N 32°33' W 091°06'1 8.2
2017-Nov-19 02:30N 32°34' W 091°07'  

Dump ship's entire track history